.
WxDataArchive / Data Records for 2008-06-13
2008-06-12 June 2008 2008-06-14

Data Records for Friday, 13 June 2008

Time	Temp	Chill	HIndex	Humid	Dewpt	 Wind 	HiWind	WindDir	Rain 	Barom 
-----	----	-----	------	-----	-----	------	------	-------	-----	----- 
00:00	76.8	76.8	78.3	78	69.4	1	3	112	0.00	29.920 
00:05	76.8	76.8	78.3	78	69.4	2	9	112	0.00	29.918 
00:10	76.8	76.8	78.4	77	69.0	2	5	135	0.00	29.916 
00:15	77.0	77.0	78.7	77	69.2	1	3	135	0.00	29.912 
00:20	77.0	77.0	78.7	77	69.2	1	3	135	0.00	29.919 
00:25	77.0	77.0	78.7	76	68.8	1	3	112	0.00	29.918 
00:30	77.0	77.0	78.7	76	68.8	1	4	45	0.00	29.919 
00:35	77.0	77.0	78.7	76	68.8	1	10	45	0.00	29.918 
00:40	77.0	77.0	78.7	75	68.5	1	10	90	0.00	29.914 
00:45	77.0	77.0	78.7	75	68.5	0	4	90	0.00	29.916 
00:50	76.8	76.8	78.4	75	68.3	0	2	90	0.00	29.916 
00:55	76.8	76.8	78.4	75	68.3	1	3	90	0.00	29.915 
01:00	76.8	76.8	78.4	75	68.3	0	2	90	0.00	29.918 
01:05	76.8	76.8	78.4	75	68.3	1	6	315	0.00	29.916 
01:10	76.8	76.8	78.4	74	67.9	0	2	112	0.00	29.913 
01:15	77.0	77.0	78.7	74	68.1	1	5	90	0.00	29.908 
01:20	77.0	77.0	78.7	74	68.1	1	4	270	0.00	29.912 
01:25	77.0	77.0	78.7	74	68.1	0	2	270	0.00	29.912 
01:30	77.0	77.0	78.7	74	68.1	1	4	248	0.00	29.917 
01:35	77.0	77.0	78.7	74	68.1	1	4	248	0.00	29.917 
01:40	77.0	77.0	78.7	74	68.1	1	4	248	0.00	29.918 
01:45	77.0	77.0	78.7	74	68.1	1	3	22	0.00	29.922 
01:50	76.8	76.8	78.4	74	67.9	1	3	270	0.00	29.920 
01:55	76.8	76.8	78.4	75	68.3	0	3	338	0.00	29.920 
02:00	76.7	76.7	78.3	75	68.2	0	2	338	0.00	29.922 
02:05	76.5	76.5	78.0	76	68.4	0	2	338	0.00	29.922 
02:10	76.3	76.3	77.7	76	68.2	1	2	292	0.00	29.923 
02:15	76.3	76.3	77.7	76	68.2	0	2	292	0.00	29.927 
02:20	76.1	76.1	77.4	77	68.3	0	1	338	0.00	29.929 
02:25	76.0	76.0	77.2	77	68.3	0	2	248	0.00	29.928 
02:30	75.8	75.8	77.0	77	68.1	0	1	248	0.00	29.923 
02:35	75.8	75.8	77.0	77	68.1	0	2	248	0.00	29.922 
02:40	75.8	75.8	77.0	77	68.1	0	1	270	0.00	29.922 
02:45	75.6	75.6	76.6	78	68.2	0	4	225	0.00	29.926 
02:50	75.6	75.6	76.6	78	68.2	0	1	270	0.00	29.925 
02:55	75.6	75.6	76.6	78	68.2	0	2	270	0.00	29.927 
03:00	75.6	75.6	76.6	78	68.2	1	6	248	0.00	29.924 
03:05	75.8	75.8	77.0	77	68.1	1	3	270	0.00	29.922 
03:10	76.0	76.0	77.2	77	68.3	0	3	248	0.00	29.925 
03:15	76.0	76.0	77.2	77	68.3	1	2	248	0.00	29.931 
03:20	76.0	76.0	77.2	77	68.3	0	3	248	0.00	29.934 
03:25	76.0	76.0	77.3	76	67.9	0	3	248	0.00	29.935 
03:30	76.0	76.0	77.3	76	67.9	0	1	248	0.00	29.936 
03:35	76.1	76.1	77.4	76	68.0	1	5	248	0.00	29.935 
03:40	76.1	76.1	77.4	76	68.0	1	4	248	0.00	29.936 
03:45	76.1	76.1	77.4	76	68.0	1	3	248	0.00	29.940 
03:50	76.1	76.1	77.4	76	68.0	0	2	248	0.00	29.943 
03:55	76.3	76.3	77.7	75	67.8	1	5	248	0.00	29.943 
04:00	76.3	76.3	77.7	75	67.8	0	2	248	0.00	29.943 
04:05	76.3	76.3	77.7	76	68.2	0	1	270	0.00	29.943 
04:10	76.1	76.1	77.4	76	68.0	1	3	270	0.00	29.944 
04:15	76.1	76.1	77.4	76	68.0	0	2	270	0.00	29.946 
04:20	76.0	76.0	77.3	76	67.9	0	3	270	0.00	29.944 
04:25	76.0	76.0	77.2	77	68.3	1	4	248	0.00	29.941 
04:30	76.0	76.0	77.3	76	67.9	1	4	248	0.00	29.943 
04:35	76.0	76.0	77.3	76	67.9	0	3	248	0.00	29.943 
04:40	76.0	76.0	77.2	77	68.3	1	2	248	0.00	29.942 
04:45	75.8	75.8	77.0	77	68.1	1	3	270	0.00	29.939 
04:50	75.8	75.8	77.0	77	68.1	0	1	338	0.00	29.938 
04:55	75.4	75.4	76.3	78	68.0	1	3	338	0.00	29.937 
05:00	75.4	75.4	76.3	78	68.0	1	4	248	0.00	29.937 
05:05	75.3	75.3	76.2	78	68.0	0	3	248	0.00	29.936 
05:10	75.1	75.1	75.8	79	68.1	0	2	248	0.00	29.935 
05:15	75.1	75.1	75.8	79	68.1	0	2	248	0.00	29.935 
05:20	75.1	75.1	75.8	79	68.1	1	3	68	0.00	29.932 
05:25	75.1	75.1	75.8	79	68.1	0	2	292	0.00	29.933 
05:30	74.9	74.9	74.9	80	68.3	0	2	292	0.00	29.931 
05:35	74.7	74.7	74.7	80	68.1	0	1	292	0.00	29.930 
05:40	74.7	74.7	74.7	80	68.1	0	2	248	0.00	29.931 
05:45	74.9	74.9	74.9	80	68.3	0	3	248	0.00	29.934 
05:50	74.9	74.9	74.9	80	68.3	1	3	248	0.00	29.936 
05:55	75.1	75.1	75.7	80	68.5	0	2	248	0.00	29.935 
06:00	75.3	75.3	76.1	79	68.3	1	4	248	0.00	29.937 
06:05	75.6	75.6	76.5	79	68.6	1	6	270	0.00	29.937 
06:10	75.8	75.8	76.9	78	68.4	1	3	248	0.00	29.936 
06:15	76.0	76.0	77.2	77	68.3	1	5	248	0.00	29.940 
06:20	76.0	76.0	77.2	77	68.3	1	6	270	0.00	29.945 
06:25	76.0	76.0	77.2	77	68.3	2	5	248	0.00	29.946 
06:30	76.0	76.0	77.2	78	68.6	2	6	248	0.00	29.950 
06:35	75.3	75.3	75.9	81	69.1	2	6	248	0.02	29.955 
06:40	74.6	74.6	74.6	84	69.4	2	5	270	0.00	29.958 
06:45	74.0	74.0	74.0	86	69.5	1	3	248	0.01	29.962 
06:50	73.7	73.7	73.7	88	69.9	0	2	248	0.00	29.954 
06:55	73.5	73.5	73.5	88	69.7	0	1	248	0.00	29.956 
07:00	73.5	73.5	73.5	89	70.0	0	3	248	0.00	29.961 
07:05	73.5	73.5	73.5	89	70.0	1	3	248	0.00	29.969 
07:10	73.5	73.5	73.5	89	70.0	1	3	270	0.00	29.970 
07:15	73.5	73.5	73.5	89	70.0	1	2	270	0.00	29.973 
07:20	73.3	73.3	73.3	89	69.9	0	2	270	0.00	29.974 
07:25	73.3	73.3	73.3	88	69.5	1	4	270	0.00	29.972 
07:30	73.2	73.2	73.2	88	69.4	0	2	270	0.00	29.969 
07:35	73.0	73.0	73.0	88	69.2	0	2	248	0.00	29.971 
07:40	72.8	72.8	72.8	88	69.0	0	1	248	0.00	29.973 
07:45	72.8	72.8	72.8	87	68.7	0	1	248	0.00	29.972 
07:50	72.8	72.8	72.8	87	68.7	0	1	248	0.00	29.971 
07:55	73.0	73.0	73.0	87	68.9	0	0	---	0.00	29.971 
08:00	73.0	73.0	73.0	87	68.9	0	1	248	0.00	29.972 
08:05	73.5	73.5	73.5	88	69.7	0	0	---	0.00	29.973 
08:10	74.4	74.4	74.4	86	69.9	0	1	248	0.00	29.972 
08:15	75.1	75.1	75.3	83	69.6	0	1	248	0.00	29.967 
08:20	75.4	75.4	76.4	77	67.7	1	2	248	0.00	29.971 
08:25	76.0	76.0	77.2	77	68.3	0	1	248	0.00	29.971 
08:30	75.6	75.6	76.9	75	67.1	0	1	248	0.00	29.960 
08:35	75.3	75.3	76.5	75	66.8	0	0	---	0.00	29.956 
08:40	75.1	75.1	76.1	77	67.4	0	0	---	0.00	29.954 
08:45	75.1	75.1	76.0	78	67.8	1	2	248	0.00	29.947 
08:50	75.1	75.1	76.1	77	67.4	1	3	112	0.00	29.943 
08:55	76.0	76.0	77.2	77	68.3	1	2	112	0.00	29.941 
09:00	77.0	77.0	78.7	75	68.5	1	4	90	0.00	29.940 
09:05	78.1	78.1	80.2	72	68.3	1	4	112	0.00	29.944 
09:10	78.6	78.6	80.8	70	68.0	1	3	90	0.00	29.945 
09:15	78.8	78.8	81.1	69	67.7	2	6	112	0.00	29.941 
09:20	78.6	78.6	81.0	72	68.8	2	5	112	0.00	29.939 
09:25	78.5	78.5	81.0	75	69.9	2	4	90	0.00	29.937 
09:30	77.7	77.7	79.7	74	68.7	3	9	90	0.00	29.940 
09:35	77.2	77.2	79.0	75	68.6	3	6	112	0.00	29.942 
09:40	76.8	76.8	78.4	76	68.6	2	6	90	0.00	29.941 
09:45	76.7	76.7	78.2	77	68.9	2	6	90	0.00	29.933 
09:50	76.5	76.5	77.9	77	68.7	2	6	90	0.00	29.937 
09:55	76.7	76.7	78.2	78	69.3	1	3	112	0.00	29.942 
10:00	77.0	77.0	78.7	77	69.2	1	5	68	0.00	29.950 
10:05	77.7	77.7	79.7	77	69.9	1	6	0	0.00	29.955 
10:10	77.4	77.4	79.3	77	69.6	3	7	270	0.00	29.958 
10:15	77.2	77.2	78.9	78	69.8	1	4	270	0.00	29.960 
10:20	76.8	76.8	78.3	78	69.4	1	5	248	0.00	29.957 
10:25	76.7	76.7	78.2	78	69.3	1	4	90	0.00	29.951 
10:30	76.5	76.5	77.8	79	69.5	1	3	270	0.00	29.952 
10:35	76.3	76.3	77.5	80	69.7	1	4	270	0.00	29.949 
10:40	76.3	76.3	77.5	80	69.7	1	5	292	0.00	29.949 
10:45	76.3	76.3	77.4	81	70.0	1	3	90	0.00	29.956 
10:50	76.3	76.3	77.4	81	70.0	1	5	270	0.00	29.956 
10:55	76.3	76.3	77.4	81	70.0	1	5	248	0.00	29.958 
11:00	76.3	76.3	77.4	81	70.0	2	6	248	0.00	29.958 
11:05	76.3	76.3	77.3	82	70.4	1	2	248	0.00	29.958 
11:10	76.7	76.7	77.9	83	71.1	1	3	270	0.00	29.955 
11:15	76.8	76.8	78.2	81	70.5	1	5	270	0.00	29.955 
11:20	77.6	77.6	79.6	82	71.7	1	4	292	0.00	29.953 
11:25	78.5	78.5	81.2	79	71.4	1	4	90	0.00	29.947 
11:30	79.0	79.0	82.0	77	71.2	2	5	225	0.00	29.944 
11:35	78.5	78.5	81.0	75	69.9	3	7	270	0.00	29.946 
11:40	78.1	78.1	80.4	77	70.3	2	3	248	0.00	29.946 
11:45	78.1	78.1	80.4	78	70.7	1	4	248	0.00	29.947 
11:50	78.1	78.1	80.4	77	70.3	0	2	248	0.00	29.946 
11:55	77.7	77.7	79.7	77	69.9	1	4	270	0.00	29.946 
12:00	77.6	77.6	79.6	76	69.4	2	5	248	0.00	29.944 
12:05	77.6	77.6	79.6	76	69.4	1	3	270	0.00	29.944 
12:10	77.6	77.6	79.6	77	69.8	0	2	270	0.00	29.943 
12:15	77.4	77.4	79.3	76	69.2	1	3	248	0.00	29.942 
12:20	77.2	77.2	79.0	76	69.0	1	2	248	0.00	29.944 
12:25	77.2	77.2	79.0	77	69.4	0	2	248	0.00	29.942 
12:30	77.2	77.2	79.0	77	69.4	1	3	248	0.00	29.941 
12:35	77.4	77.4	79.3	77	69.6	0	2	248	0.00	29.936 
12:40	77.6	77.6	79.6	77	69.8	0	2	202	0.00	29.934 
12:45	77.7	77.7	79.7	76	69.5	1	2	202	0.00	29.941 
12:50	77.7	77.7	79.7	77	69.9	1	2	225	0.00	29.940 
12:55	77.7	77.7	79.7	77	69.9	1	4	225	0.00	29.935 
13:00	77.7	77.7	79.7	77	69.9	0	2	248	0.00	29.930 
13:05	77.6	77.6	79.6	78	70.2	1	3	248	0.00	29.935 
13:10	77.4	77.4	79.3	76	69.2	2	9	270	0.00	29.932 
13:15	77.2	77.2	79.0	76	69.0	2	4	248	0.00	29.930 
13:20	76.8	76.8	78.4	77	69.0	2	6	270	0.00	29.933 
13:25	76.7	76.7	78.2	77	68.9	2	5	248	0.00	29.931 
13:30	76.5	76.5	77.8	79	69.5	1	4	248	0.01	29.932 
13:35	76.3	76.3	77.5	80	69.7	1	5	248	0.00	29.932 
13:40	76.0	76.0	76.8	82	70.1	1	3	0	0.00	29.932 
13:45	75.6	75.6	76.1	83	70.1	0	2	248	0.00	29.928 
13:50	75.3	75.3	75.6	83	69.8	1	4	248	0.00	29.928 
13:55	75.1	75.1	75.2	84	69.9	1	3	248	0.00	29.928 
14:00	74.9	74.9	74.9	85	70.1	0	3	248	0.00	29.936 
14:05	74.7	74.7	74.7	86	70.2	0	2	248	0.01	29.940 
14:10	74.4	74.4	74.4	87	70.3	0	1	248	0.01	29.942 
14:15	74.0	74.0	74.0	87	69.9	0	3	248	0.00	29.943 
14:20	73.7	73.7	73.7	88	69.9	1	4	270	0.01	29.944 
14:25	73.3	73.3	73.3	88	69.5	1	6	270	0.01	29.946 
14:30	73.0	73.0	73.0	88	69.2	1	3	112	0.01	29.946 
14:35	72.7	72.7	72.7	89	69.3	1	3	270	0.01	29.951 
14:40	72.3	72.3	72.3	90	69.2	1	3	0	0.01	29.953 
14:45	72.1	72.1	72.1	91	69.3	1	4	248	0.01	29.955 
14:50	72.0	72.0	72.0	91	69.2	1	4	248	0.01	29.956 
14:55	71.8	71.8	71.8	92	69.3	1	5	248	0.01	29.957 
15:00	71.8	71.8	71.8	92	69.3	2	5	248	0.01	29.956 
15:05	71.8	71.8	71.8	93	69.7	1	3	270	0.01	29.954 
15:10	71.8	71.8	71.8	93	69.7	0	2	248	0.00	29.954 
15:15	72.0	72.0	72.0	93	69.9	0	1	248	0.00	29.957 
15:20	72.3	72.3	72.3	94	70.5	0	1	248	0.00	29.951 
15:25	72.1	72.1	72.1	93	70.0	0	2	248	0.00	29.947 
15:30	72.0	72.0	72.0	93	69.9	0	2	248	0.00	29.947 
15:35	71.8	71.8	71.8	93	69.7	0	3	248	0.00	29.947 
15:40	71.8	71.8	71.8	92	69.3	0	2	248	0.00	29.950 
15:45	71.6	71.6	71.6	92	69.1	1	2	248	0.00	29.952 
15:50	71.8	71.8	71.8	92	69.3	1	2	248	0.01	29.948 
15:55	72.1	72.1	72.1	93	70.0	1	3	248	0.00	29.950 
16:00	72.3	72.3	72.3	93	70.2	1	4	248	0.00	29.947 
16:05	71.8	71.8	71.8	92	69.3	2	4	270	0.00	29.947 
16:10	71.6	71.6	71.6	92	69.1	1	2	248	0.00	29.945 
16:15	71.6	71.6	71.6	92	69.1	0	2	248	0.00	29.940 
16:20	71.6	71.6	71.6	92	69.1	0	2	248	0.00	29.925 
16:25	71.8	71.8	71.8	92	69.3	0	1	248	0.00	29.919 
16:30	72.1	72.1	72.1	92	69.6	0	3	248	0.00	29.909 
16:35	72.3	72.3	72.3	92	69.8	0	2	45	0.00	29.911 
16:40	72.7	72.7	72.7	92	70.2	1	3	45	0.00	29.892 
16:45	72.7	72.7	72.7	91	69.9	1	4	90	0.00	29.880 
16:50	72.7	72.7	72.7	90	69.6	1	5	90	0.00	29.868 
16:55	72.7	72.7	72.7	90	69.6	1	3	68	0.00	29.869 
17:00	72.7	72.7	72.7	89	69.3	1	3	135	0.00	29.873 
17:05	72.7	72.7	72.7	88	68.9	1	3	248	0.00	29.877 
17:10	72.5	72.5	72.5	87	68.4	1	4	112	0.00	29.871 
17:15	72.7	72.7	72.7	87	68.6	1	4	112	0.00	29.866 
17:20	72.7	72.7	72.7	87	68.6	0	2	112	0.00	29.866 
17:25	72.8	72.8	72.8	88	69.0	0	1	112	0.00	29.864 
17:30	72.7	72.7	72.7	88	68.9	0	2	112	0.00	29.868 
17:35	72.7	72.7	72.7	88	68.9	1	2	112	0.00	29.874 
17:40	72.7	72.7	72.7	89	69.3	0	1	248	0.00	29.871 
17:45	72.7	72.7	72.7	89	69.3	0	1	248	0.00	29.866 
17:50	72.5	72.5	72.5	89	69.1	0	2	248	0.00	29.867 
17:55	72.5	72.5	72.5	89	69.1	0	5	68	0.00	29.869 
18:00	72.3	72.3	72.3	89	68.9	0	1	68	0.00	29.871 
18:05	72.1	72.1	72.1	89	68.7	0	2	68	0.00	29.881 
18:10	72.0	72.0	72.0	89	68.6	0	1	68	0.00	29.882 
18:15	71.8	71.8	71.8	89	68.4	0	1	68	0.01	29.893 
18:20	71.8	71.8	71.8	90	68.7	0	1	68	0.00	29.899 
18:25	71.6	71.6	71.6	90	68.5	0	3	68	0.00	29.891 
18:30	71.5	71.5	71.5	90	68.4	0	1	68	0.00	29.879 
18:35	71.5	71.5	71.5	90	68.4	0	1	68	0.00	29.877 
18:40	71.5	71.5	71.5	90	68.4	0	1	68	0.00	29.876 
18:45	71.5	71.5	71.5	90	68.4	0	1	68	0.00	29.871 
18:50	71.5	71.5	71.5	90	68.4	0	1	68	0.00	29.882 
18:55	71.5	71.5	71.5	90	68.4	0	1	68	0.00	29.881 
19:00	71.5	71.5	71.5	90	68.4	0	1	68	0.00	29.879 
19:05	71.5	71.5	71.5	91	68.7	0	0	---	0.00	29.884 
19:10	71.3	71.3	71.3	91	68.5	0	1	68	0.00	29.893 
19:15	71.3	71.3	71.3	91	68.5	0	1	68	0.00	29.893 
19:20	70.9	70.9	70.9	90	67.8	1	4	270	0.00	29.892 
19:25	70.9	70.9	70.9	90	67.8	0	1	315	0.00	29.891 
19:30	70.8	70.8	70.8	90	67.7	0	1	315	0.00	29.887 
19:35	70.8	70.8	70.8	90	67.7	0	3	315	0.00	29.888 
19:40	70.6	70.6	70.6	90	67.5	0	1	22	0.00	29.893 
19:45	70.6	70.6	70.6	90	67.5	0	2	315	0.00	29.889 
19:50	70.4	70.4	70.4	90	67.3	0	1	315	0.00	29.891 
19:55	70.3	70.3	70.3	90	67.2	0	2	225	0.00	29.891 
20:00	70.3	70.3	70.3	90	67.2	0	4	112	0.00	29.889 
20:05	70.1	70.1	70.1	91	67.3	0	1	248	0.00	29.886 
20:10	70.1	70.1	70.1	91	67.3	0	1	248	0.00	29.887 
20:15	69.9	69.9	69.9	91	67.1	0	2	248	0.00	29.887 
20:20	69.9	69.9	69.9	91	67.1	1	3	270	0.00	29.887 
20:25	69.9	69.9	69.9	91	67.1	1	3	270	0.00	29.889 
20:30	69.9	69.9	69.9	91	67.1	1	4	270	0.00	29.888 
20:35	69.8	69.8	69.8	91	67.0	1	2	225	0.00	29.886 
20:40	69.8	69.8	69.8	91	67.0	0	2	248	0.00	29.884 
20:45	69.8	69.8	69.8	91	67.0	0	3	248	0.00	29.886 
20:50	69.8	69.8	69.8	91	67.0	0	1	248	0.00	29.886 
20:55	69.8	69.8	69.8	91	67.0	1	2	248	0.00	29.885 
21:00	69.8	69.8	69.8	91	67.0	0	1	248	0.00	29.884 
21:05	69.6	69.6	69.6	91	66.8	0	3	248	0.00	29.885 
21:10	69.6	69.6	69.6	91	66.8	0	1	248	0.00	29.886 
21:15	69.6	69.6	69.6	91	66.8	0	6	248	0.00	29.886 
21:20	69.6	69.6	69.6	91	66.8	0	1	248	0.00	29.887 
21:25	69.6	69.6	69.6	90	66.5	0	2	248	0.00	29.888 
21:30	69.6	69.6	69.6	90	66.5	0	2	248	0.00	29.886 
21:35	69.6	69.6	69.6	90	66.5	0	2	112	0.00	29.881 
21:40	69.6	69.6	69.6	89	66.2	1	3	180	0.00	29.885 
21:45	69.6	69.6	69.6	89	66.2	1	2	270	0.00	29.884 
21:50	69.6	69.6	69.6	89	66.2	0	2	270	0.00	29.884 
21:55	69.6	69.6	69.6	89	66.2	1	4	248	0.00	29.883 
22:00	69.6	69.6	69.6	88	65.9	0	3	225	0.00	29.883 
22:05	69.6	69.6	69.6	88	65.9	1	3	270	0.00	29.880 
22:10	69.6	69.6	69.6	88	65.9	1	3	270	0.00	29.882 
22:15	69.6	69.6	69.6	88	65.9	1	4	248	0.00	29.881 
22:20	69.8	69.8	69.8	88	66.1	1	5	0	0.00	29.883 
22:25	69.8	69.8	69.8	87	65.7	1	4	270	0.00	29.885 
22:30	69.8	69.8	69.8	87	65.7	1	3	292	0.00	29.885 
22:35	69.8	69.8	69.8	87	65.7	1	4	248	0.00	29.886 
22:40	69.8	69.8	69.8	87	65.7	1	3	248	0.00	29.887 
22:45	69.9	69.9	69.9	86	65.5	2	5	270	0.00	29.888 
22:50	70.1	70.1	70.1	86	65.7	2	5	248	0.00	29.890 
22:55	70.1	70.1	70.1	86	65.7	1	3	270	0.00	29.891 
23:00	70.1	70.1	70.1	86	65.7	1	2	270	0.00	29.892 
23:05	70.1	70.1	70.1	87	66.0	0	2	248	0.00	29.888 
23:10	69.9	69.9	69.9	87	65.8	1	3	248	0.00	29.891 
23:15	69.9	69.9	69.9	87	65.8	1	4	248	0.00	29.896 
23:20	69.9	69.9	69.9	88	66.2	1	4	270	0.00	29.897 
23:25	69.9	69.9	69.9	88	66.2	1	3	248	0.00	29.900 
23:30	69.9	69.9	69.9	88	66.2	1	6	270	0.00	29.903 
23:35	69.9	69.9	69.9	88	66.2	1	3	248	0.00	29.902 
23:40	69.9	69.9	69.9	88	66.2	1	4	248	0.00	29.903 
23:45	69.9	69.9	69.9	88	66.2	1	4	248	0.00	29.902 
23:50	69.9	69.9	69.9	88	66.2	1	7	248	0.00	29.903 
23:55	70.1	70.1	70.1	88	66.4	2	6	248	0.00	29.905 

CoCoRaHS
IN-AL-39
A2 Web Hosting
Creative Commons License
GoDaddy
Look for:

loaded 2017-12-13 20:02:25 • last modified 2010-11-18 10:43:29
Privacy PolicyDisclaimer
• wx.awcolley.com is powered by PmWiki v.2002016 •
• all content (unless otherwise noted) © 2017 A W Colley